Time;durP1;ratioP1;P1;durP2;ratioP2;P2;SDS_P1;SDS_P2;PMS_P1;PMS_P2;Temp;Humidity;BMP_temperature;BMP_pressure;BME280_temperature;BME280_humidity;BME280_pressure;Samples;Min_cycle;Max_cycle;Signal;HPM_P1;HPM_P2
2023/10/18 00:00:58;;;;;;;13.25;9.98;;;;;;;12.60;100.00;98475.38;5049466;28;20640;-59
2023/10/18 00:03:31;;;;;;;12.73;10.60;;;;;;;12.54;100.00;98464.66;5049645;28;20186;-60
2023/10/18 00:05:59;;;;;;;11.93;10.13;;;;;;;12.67;100.00;98480.94;5049913;28;20194;-60
2023/10/18 00:08:24;;;;;;;13.02;10.65;;;;;;;12.49;100.00;98452.00;5049565;28;20273;-59
2023/10/18 00:10:53;;;;;;;15.32;11.95;;;;;;;12.72;100.00;98479.63;5049454;28;20276;-57
2023/10/18 00:13:22;;;;;;;19.15;11.70;;;;;;;12.61;100.00;98452.84;5049134;28;20272;-59
2023/10/18 00:15:53;;;;;;;17.27;11.88;;;;;;;12.50;100.00;98447.66;5049419;28;20233;-59
2023/10/18 00:18:20;;;;;;;16.92;11.85;;;;;;;12.55;100.00;98471.50;5049478;28;20182;-58
2023/10/18 00:20:46;;;;;;;15.80;12.50;;;;;;;12.59;100.00;98462.50;5049292;28;20273;-58
2023/10/18 00:23:11;;;;;;;15.45;11.32;;;;;;;12.72;100.00;98484.84;5049300;28;20280;-59
2023/10/18 00:25:37;;;;;;;17.75;12.27;;;;;;;12.68;100.00;98473.06;5049285;28;20625;-59
2023/10/18 00:28:03;;;;;;;16.88;11.75;;;;;;;12.56;100.00;98447.19;5049238;28;20174;-59
2023/10/18 00:30:30;;;;;;;16.20;11.60;;;;;;;12.85;100.00;98485.56;5049295;28;20397;-59
2023/10/18 00:32:56;;;;;;;17.17;11.50;;;;;;;12.51;100.00;98446.69;5088074;28;20220;-60
2023/10/18 00:35:31;;;;;;;16.88;10.80;;;;;;;12.75;100.00;98479.44;5091804;28;20184;-59
2023/10/18 00:37:57;;;;;;;21.70;13.60;;;;;;;12.70;100.00;98458.19;5091895;28;20175;-59
2023/10/18 00:42:55;;;;;;;25.70;14.30;;;;;;;12.73;100.00;98460.53;5091774;28;20180;-60
2023/10/18 00:45:22;;;;;;;24.65;15.82;;;;;;;12.68;100.00;98456.63;5091073;28;20177;-60
2023/10/18 00:47:49;;;;;;;28.15;17.08;;;;;;;12.56;100.00;98432.44;5091395;28;20591;-59
2023/10/18 00:50:18;;;;;;;24.65;16.00;;;;;;;12.54;100.00;98428.31;5091215;28;20173;-60
2023/10/18 00:52:44;;;;;;;27.80;17.48;;;;;;;12.84;100.00;98467.50;5091317;28;20238;-60
2023/10/18 00:55:10;;;;;;;27.13;17.02;;;;;;;12.73;100.00;98451.94;5091358;28;20260;-60
2023/10/18 00:57:37;;;;;;;27.52;16.80;;;;;;;12.69;100.00;98447.91;5088616;28;20275;-60
2023/10/18 01:00:12;;;;;;;24.27;16.70;;;;;;;12.66;100.00;98453.34;5088894;28;20192;-60
2023/10/18 01:02:41;;;;;;;21.55;15.48;;;;;;;12.64;100.00;98453.44;5088888;28;20606;-60
2023/10/18 01:05:14;;;;;;;23.23;15.50;;;;;;;12.62;100.00;98446.72;5088883;28;20212;-60
2023/10/18 01:07:40;;;;;;;21.10;14.93;;;;;;;12.46;100.00;98421.09;5088934;28;20188;-59
2023/10/18 01:10:09;;;;;;;22.98;14.05;;;;;;;12.72;100.00;98463.25;5088850;28;20307;-60
2023/10/18 01:12:34;;;;;;;21.10;14.75;;;;;;;12.41;100.00;98437.94;5088646;28;20616;-60
2023/10/18 01:15:00;;;;;;;22.73;14.85;;;;;;;12.29;100.00;98423.31;5088604;28;20192;-59
2023/10/18 01:17:26;;;;;;;22.17;15.15;;;;;;;12.40;100.00;98457.91;5088741;28;20220;-60
2023/10/18 01:19:53;;;;;;;20.10;14.45;;;;;;;12.29;100.00;98452.69;5088638;28;20623;-60
2023/10/18 01:22:19;;;;;;;22.20;15.05;;;;;;;12.29;100.00;98429.34;5088574;28;20218;-59
2023/10/18 01:24:45;;;;;;;21.92;14.88;;;;;;;12.17;100.00;98416.44;5088623;28;20184;-60
2023/10/18 01:27:12;;;;;;;19.30;13.45;;;;;;;12.47;100.00;98453.06;5088598;28;20565;-60
2023/10/18 01:29:39;;;;;;;20.98;13.35;;;;;;;12.18;100.00;98410.31;5090709;28;20352;-59
2023/10/18 01:32:05;;;;;;;20.70;13.18;;;;;;;12.12;100.00;98416.78;5091073;28;20203;-59
2023/10/18 01:34:31;;;;;;;21.02;14.23;;;;;;;12.17;100.00;98406.06;5091059;28;20693;-59
2023/10/18 01:36:58;;;;;;;22.10;13.40;;;;;;;12.28;100.00;98432.88;5091065;28;20183;-58
2023/10/18 01:39:28;;;;;;;22.48;15.00;;;;;;;11.87;100.00;98405.75;5090751;28;20180;-59
2023/10/18 01:41:54;;;;;;;26.38;15.65;;;;;;;11.69;100.00;98409.69;5091019;28;20165;-59
2023/10/18 01:44:35;;;;;;;26.33;15.95;;;;;;;11.74;100.00;98423.16;5090893;28;20517;-59
2023/10/18 01:47:07;;;;;;;20.95;15.00;;;;;;;11.50;100.00;98438.66;5090980;28;20172;-60
2023/10/18 01:49:40;;;;;;;18.77;14.13;;;;;;;11.51;100.00;98449.88;5090867;28;20605;-60
2023/10/18 01:52:08;;;;;;;20.10;14.00;;;;;;;11.28;100.00;98407.47;5090718;28;20188;-60
2023/10/18 01:54:34;;;;;;;20.92;14.50;;;;;;;11.40;100.00;98447.22;5090614;28;20203;-59
2023/10/18 01:57:00;;;;;;;28.83;16.55;;;;;;;11.04;100.00;98408.38;5090579;28;20267;-59
2023/10/18 01:59:29;;;;;;;22.88;15.05;;;;;;;11.19;100.00;98439.19;5094587;28;20180;-58
2023/10/18 02:01:57;;;;;;;25.52;16.50;;;;;;;11.14;100.00;98432.72;5094540;28;20180;-58
2023/10/18 02:04:25;;;;;;;23.55;16.02;;;;;;;11.04;100.00;98423.91;5094468;28;20228;-59
2023/10/18 02:06:57;;;;;;;22.65;15.48;;;;;;;11.15;100.00;98421.41;5094170;28;20556;-59
2023/10/18 02:09:23;;;;;;;23.80;16.92;;;;;;;11.12;100.00;98400.91;5094563;28;20173;-59
2023/10/18 02:11:49;;;;;;;27.63;17.38;;;;;;;11.26;100.00;98426.66;5094555;28;20255;-59
2023/10/18 02:14:14;;;;;;;24.20;16.10;;;;;;;11.42;100.00;98434.97;5106133;28;20279;-59
2023/10/18 02:16:41;;;;;;;26.15;16.63;;;;;;;11.53;100.00;98448.00;5114782;28;20171;-58
2023/10/18 02:19:08;;;;;;;24.05;16.92;;;;;;;11.26;100.00;98400.75;5114777;28;20180;-59
2023/10/18 02:21:36;;;;;;;27.40;16.10;;;;;;;11.44;100.00;98412.38;5114638;28;20178;-60
2023/10/18 02:24:01;;;;;;;21.77;15.43;;;;;;;11.48;100.00;98404.28;5114629;28;20644;-59
2023/10/18 02:28:56;;;;;;;23.35;15.07;;;;;;;11.77;100.00;98402.19;5071393;28;20832;-59
2023/10/18 02:31:21;;;;;;;24.77;15.27;;;;;;;12.01;100.00;98428.91;5071400;28;20621;-59
2023/10/18 02:33:54;;;;;;;24.90;15.43;;;;;;;11.81;100.00;98404.47;5071389;28;20241;-60
2023/10/18 02:36:38;;;;;;;24.75;15.70;;;;;;;11.75;100.00;98401.47;5071225;28;20335;-58
2023/10/18 02:39:06;;;;;;;23.38;14.18;;;;;;;11.83;100.00;98406.91;5071379;28;20562;-58
2023/10/18 02:41:34;;;;;;;21.15;13.80;;;;;;;11.94;100.00;98412.13;5071249;28;20185;-58
2023/10/18 02:44:00;;;;;;;23.63;14.60;;;;;;;12.03;100.00;98435.63;5071123;28;20185;-59
2023/10/18 02:46:26;;;;;;;20.98;14.98;;;;;;;12.01;100.00;98450.47;5071136;28;20185;-58
2023/10/18 02:48:53;;;;;;;23.35;16.25;;;;;;;11.63;100.00;98429.13;5071049;28;20638;-59
2023/10/18 02:51:22;;;;;;;24.75;15.48;;;;;;;11.65;100.00;98416.03;5071040;28;20505;-58
2023/10/18 02:53:52;;;;;;;22.98;15.10;;;;;;;11.93;100.00;98437.25;5071040;28;20209;-59
2023/10/18 02:56:27;;;;;;;24.23;15.63;;;;;;;12.12;100.00;98449.69;5072117;28;20545;-58
2023/10/18 02:58:55;;;;;;;28.83;16.67;;;;;;;12.10;100.00;98428.22;5114085;28;20182;-59
2023/10/18 03:01:21;;;;;;;21.27;14.32;;;;;;;12.13;100.00;98433.19;5113860;28;20188;-59
2023/10/18 03:03:54;;;;;;;23.67;14.60;;;;;;;12.26;100.00;98439.94;5113902;28;20194;-59
2023/10/18 03:06:24;;;;;;;22.95;13.75;;;;;;;12.09;100.00;98408.41;5113984;28;20202;-59
2023/10/18 03:08:50;;;;;;;18.83;11.90;;;;;;;12.27;100.00;98435.56;5113390;28;20263;-58
2023/10/18 03:11:20;;;;;;;15.02;11.07;;;;;;;12.17;100.00;98413.84;5113533;28;20187;-59
2023/10/18 03:13:46;;;;;;;12.82;11.23;;;;;;;12.15;100.00;98415.75;5113480;28;20250;-59
2023/10/18 03:18:42;;;;;;;11.77;9.55;;;;;;;12.04;100.00;98413.97;5113654;28;20184;-58
2023/10/18 03:21:08;;;;;;;12.18;9.52;;;;;;;12.19;100.00;98427.56;5113541;28;20221;-59
2023/10/18 03:23:44;;;;;;;10.93;8.38;;;;;;;12.31;100.00;98453.38;5113154;28;20194;-58
2023/10/18 03:26:11;;;;;;;10.68;8.10;;;;;;;12.25;100.00;98446.06;5113377;28;20172;-59
2023/10/18 03:28:40;;;;;;;11.40;8.95;;;;;;;12.25;100.00;98442.66;5113101;28;20180;-58
2023/10/18 03:31:27;;;;;;;14.23;8.90;;;;;;;12.20;100.00;98429.19;5113103;28;20172;-59
2023/10/18 03:33:55;;;;;;;10.68;9.32;;;;;;;12.38;100.00;98453.75;5113054;28;20227;-59
2023/10/18 03:36:21;;;;;;;11.02;8.63;;;;;;;12.29;100.00;98431.09;5112915;28;20184;-58
2023/10/18 03:39:32;;;;;;;12.50;9.10;;;;;;;12.48;100.00;98459.94;5113048;28;20557;-59
2023/10/18 03:41:41;;;;;;;9.45;8.45;;;;;;;12.45;100.00;98439.38;5104603;28;20265;-59
2023/10/18 03:44:13;;;;;;;12.27;9.00;;;;;;;12.42;100.00;98435.25;5112911;28;20184;-59
2023/10/18 03:46:39;;;;;;;12.05;8.95;;;;;;;12.56;100.00;98458.41;5112785;28;20172;-59
2023/10/18 03:49:10;;;;;;;10.55;8.13;;;;;;;12.50;100.00;98445.91;5112747;28;20649;-59
2023/10/18 03:51:37;;;;;;;11.40;8.90;;;;;;;12.59;100.00;98458.16;5112410;28;20669;-59
2023/10/18 03:54:04;;;;;;;13.25;9.20;;;;;;;12.47;100.00;98445.28;5112641;28;20200;-59
2023/10/18 03:56:34;;;;;;;11.10;8.52;;;;;;;12.37;100.00;98410.59;5112692;28;20168;-59
2023/10/18 03:59:09;;;;;;;11.55;7.65;;;;;;;12.48;100.00;98454.72;5112591;28;20614;-59
2023/10/18 04:01:44;;;;;;;10.00;8.23;;;;;;;12.46;100.00;98441.88;5112115;28;20201;-59
2023/10/18 04:04:18;;;;;;;13.73;8.90;;;;;;;12.27;100.00;98433.81;5112476;28;20203;-59
2023/10/18 04:06:43;;;;;;;13.05;9.15;;;;;;;12.17;100.00;98416.44;5112477;28;20176;-59
2023/10/18 04:09:16;;;;;;;11.02;9.85;;;;;;;12.29;100.00;98441.47;5112364;28;20259;-59
2023/10/18 04:11:42;;;;;;;14.35;10.05;;;;;;;12.34;100.00;98447.16;5112388;28;20319;-60
2023/10/18 04:14:10;;;;;;;15.00;10.50;;;;;;;12.08;100.00;98411.97;5112160;28;20207;-59
2023/10/18 04:16:36;;;;;;;12.15;10.80;;;;;;;12.19;100.00;98419.78;5112266;28;20172;-60
2023/10/18 04:19:02;;;;;;;15.88;11.45;;;;;;;11.98;100.00;98398.00;5112087;28;20208;-60
2023/10/18 04:21:27;;;;;;;12.55;10.80;;;;;;;11.94;100.00;98399.16;5111407;28;20263;-59
2023/10/18 04:23:56;;;;;;;16.98;12.80;;;;;;;12.04;100.00;98415.72;5112084;28;20186;-60
2023/10/18 04:26:22;;;;;;;16.17;12.23;;;;;;;12.06;100.00;98426.78;5112125;28;20180;-60
2023/10/18 04:28:48;;;;;;;14.98;12.30;;;;;;;11.91;100.00;98391.63;5112133;28;20183;-59
2023/10/18 04:31:14;;;;;;;18.52;13.52;;;;;;;12.06;100.00;98412.06;5111345;28;20175;-60
2023/10/18 04:33:49;;;;;;;18.85;12.45;;;;;;;11.82;100.00;98375.00;5111791;28;20203;-59
2023/10/18 04:36:15;;;;;;;16.52;12.93;;;;;;;11.84;100.00;98386.06;5111910;28;20179;-59
2023/10/18 04:38:51;;;;;;;17.42;12.55;;;;;;;11.96;100.00;98399.91;5112071;28;20587;-59
2023/10/18 04:43:46;;;;;;;20.55;12.60;;;;;;;12.19;100.00;98432.75;5111755;28;20591;-59
2023/10/18 04:49:38;;;;;;;17.67;12.27;;;;;;;12.24;100.00;98440.97;5111704;28;20172;-59
2023/10/18 04:54:15;;;;;;;14.55;11.25;;;;;;;12.26;100.00;98428.75;5088673;28;20224;-59
2023/10/18 04:56:44;;;;;;;14.02;10.80;;;;;;;12.37;100.00;98457.31;5088744;28;20199;-59
2023/10/18 05:04:20;;;;;;;13.85;10.38;;;;;;;12.34;100.00;98462.72;5088672;28;20183;-58
2023/10/18 05:06:56;;;;;;;16.55;10.43;;;;;;;12.15;100.00;98437.34;5088861;28;20681;-59
2023/10/18 05:09:35;;;;;;;16.52;10.18;;;;;;;12.05;100.00;98422.53;5088663;28;20184;-59
2023/10/18 05:12:16;;;;;;;13.90;9.90;;;;;;;12.39;100.00;98470.97;5088517;28;20180;-58
2023/10/18 05:14:43;;;;;;;17.17;10.93;;;;;;;12.35;100.00;98479.94;5088382;28;20737;-58
2023/10/18 05:17:17;;;;;;;15.82;11.70;;;;;;;12.19;100.00;98453.50;5088493;28;20355;-58
2023/10/18 05:19:44;;;;;;;17.48;11.45;;;;;;;12.11;100.00;98432.47;5088549;28;20183;-59
2023/10/18 05:22:17;;;;;;;19.40;11.57;;;;;;;12.07;100.00;98428.47;5091239;28;20176;-59
2023/10/18 05:24:46;;;;;;;19.58;13.18;;;;;;;12.03;100.00;98422.66;5110965;28;20180;-59
2023/10/18 05:27:24;;;;;;;20.15;13.32;;;;;;;11.93;100.00;98410.50;5111195;28;20290;-59
2023/10/18 05:29:52;;;;;;;19.67;14.32;;;;;;;12.15;100.00;98441.69;5088253;28;20184;-59
2023/10/18 05:35:19;;;;;;;21.25;14.05;;;;;;;12.17;100.00;98450.16;5072082;28;20257;-59
2023/10/18 05:37:51;;;;;;;19.48;13.90;;;;;;;12.06;100.00;98444.94;5072231;28;20643;-59
2023/10/18 05:43:03;;;;;;;20.92;13.15;;;;;;;12.26;100.00;98452.91;5072138;28;20643;-59
2023/10/18 05:45:33;;;;;;;15.32;11.73;;;;;;;12.17;100.00;98444.97;5071935;28;20212;-59
2023/10/18 05:48:12;;;;;;;18.48;12.25;;;;;;;12.20;100.00;98453.34;5071932;28;20197;-59
2023/10/18 05:50:38;;;;;;;21.95;13.25;;;;;;;12.32;100.00;98449.84;5072015;28;20266;-60
2023/10/18 05:53:11;;;;;;;20.27;13.80;;;;;;;12.16;100.00;98440.75;5071749;28;20707;-59
2023/10/18 05:55:38;;;;;;;23.75;14.52;;;;;;;12.39;100.00;98483.97;5071869;28;20215;-59
2023/10/18 05:58:06;;;;;;;23.40;17.05;;;;;;;12.15;100.00;98454.66;5071738;28;20263;-60
2023/10/18 06:00:35;;;;;;;29.08;18.63;;;;;;;12.37;100.00;98475.47;5071721;28;20348;-59
2023/10/18 06:03:01;;;;;;;29.67;17.38;;;;;;;12.28;100.00;98457.97;5071658;28;20188;-59
2023/10/18 06:05:33;;;;;;;27.25;17.80;;;;;;;12.22;100.00;98463.63;5071604;28;20185;-60
2023/10/18 06:07:59;;;;;;;25.63;16.35;;;;;;;12.17;100.00;98482.13;5071724;28;20191;-60
2023/10/18 06:10:26;;;;;;;24.85;16.50;;;;;;;12.07;100.00;98444.03;5070089;28;20201;-60
2023/10/18 06:13:20;;;;;;;21.50;14.57;;;;;;;12.39;100.00;98486.56;5086421;28;20579;-60
2023/10/18 06:15:44;;;;;;;23.42;15.63;;;;;;;11.99;100.00;98449.78;5091142;28;20184;-58
2023/10/18 06:18:16;;;;;;;21.15;14.52;;;;;;;12.15;100.00;98465.03;5091507;28;20633;-58
2023/10/18 06:20:44;;;;;;;18.38;13.25;;;;;;;12.46;100.00;98501.56;5091443;28;20282;-59
2023/10/18 06:23:36;;;;;;;20.92;14.20;;;;;;;12.24;100.00;98482.50;5091366;28;20187;-59
2023/10/18 06:25:57;;;;;;;22.38;14.35;;;;;;;12.28;100.00;98483.91;5091152;28;20192;-59
2023/10/18 06:28:25;;;;;;;19.50;13.75;;;;;;;12.37;100.00;98491.03;5091347;28;20237;-59
2023/10/18 06:30:52;;;;;;;18.45;13.55;;;;;;;12.48;100.00;98480.69;5091462;28;20185;-59
2023/10/18 06:33:21;;;;;;;22.58;14.25;;;;;;;12.46;100.00;98477.34;5091337;28;20300;-59
2023/10/18 06:35:53;;;;;;;19.30;13.57;;;;;;;12.54;100.00;98480.22;5091271;28;20192;-59
2023/10/18 06:38:23;;;;;;;20.25;14.40;;;;;;;12.60;100.00;98490.94;5090783;28;20192;-58
2023/10/18 06:40:53;;;;;;;20.67;13.95;;;;;;;12.49;100.00;98466.75;5096720;28;20184;-60
2023/10/18 06:43:21;;;;;;;22.23;14.30;;;;;;;12.44;100.00;98458.50;5113244;28;20240;-58
2023/10/18 06:45:50;;;;;;;21.95;13.27;;;;;;;12.67;100.00;98499.13;5113734;28;20618;-58
2023/10/18 06:48:16;;;;;;;22.25;12.93;;;;;;;12.67;100.00;98494.72;5113894;28;20554;-58
2023/10/18 06:50:46;;;;;;;18.52;13.40;;;;;;;12.84;100.00;98514.25;5113976;28;20267;-58
2023/10/18 06:53:13;;;;;;;24.60;14.07;;;;;;;12.93;100.00;98518.72;5113887;28;20199;-58
2023/10/18 07:00:53;;;;;;;27.00;16.70;;;;;;;12.99;100.00;98528.69;5090693;28;20184;-58
2023/10/18 07:03:25;;;;;;;22.20;14.38;;;;;;;13.01;100.00;98527.63;5090512;28;20615;-60
2023/10/18 07:05:52;;;;;;;19.92;12.93;;;;;;;12.61;100.00;98517.75;5090434;28;20184;-60
2023/10/18 07:08:32;;;;;;;17.13;13.05;;;;;;;12.61;100.00;98525.53;5090627;28;20227;-60
2023/10/18 07:11:01;;;;;;;16.98;12.43;;;;;;;12.35;100.00;98518.84;5070479;28;20642;-60
2023/10/18 07:13:38;;;;;;;17.55;12.93;;;;;;;12.50;100.00;98526.34;5069999;28;20633;-59
2023/10/18 07:16:29;;;;;;;17.35;12.88;;;;;;;12.48;100.00;98511.84;5070188;28;20217;-59
2023/10/18 07:21:38;;;;;;;15.13;11.98;;;;;;;12.71;100.00;98529.91;5070349;28;20266;-60
2023/10/18 07:24:09;;;;;;;16.38;11.73;;;;;;;12.75;100.00;98520.13;5069924;28;20247;-59
2023/10/18 07:26:38;;;;;;;16.00;11.80;;;;;;;12.76;100.00;98516.59;5079600;28;20181;-60
2023/10/18 07:29:06;;;;;;;13.77;10.70;;;;;;;12.70;100.00;98506.66;5090416;28;20188;-60
2023/10/18 07:31:38;;;;;;;15.27;11.73;;;;;;;12.89;100.00;98533.72;5090121;28;20267;-59
2023/10/18 07:34:07;;;;;;;18.33;11.45;;;;;;;12.76;100.00;98501.00;5090121;28;20721;-59
2023/10/18 07:36:37;;;;;;;17.55;12.45;;;;;;;12.98;100.00;98527.03;5090385;28;20180;-59
2023/10/18 07:39:05;;;;;;;17.40;11.60;;;;;;;12.86;100.00;98497.63;5090072;28;20263;-59
2023/10/18 07:41:36;;;;;;;15.30;11.63;;;;;;;13.14;100.00;98543.94;5097073;28;20265;-59
2023/10/18 07:44:05;;;;;;;20.17;12.13;;;;;;;13.25;100.00;98543.13;5112922;28;20176;-59
2023/10/18 07:46:39;;;;;;;16.50;11.98;;;;;;;13.16;100.00;98547.25;5112777;28;20172;-59
2023/10/18 07:49:14;;;;;;;17.73;12.07;;;;;;;12.92;100.00;98502.34;5112783;28;20305;-59
2023/10/18 07:51:49;;;;;;;19.15;12.38;;;;;;;13.16;100.00;98546.41;5112879;28;20563;-58
2023/10/18 07:54:16;;;;;;;18.05;12.40;;;;;;;13.11;100.00;98523.38;5112188;28;20667;-59
2023/10/18 07:56:48;;;;;;;16.77;12.45;;;;;;;12.97;100.00;98525.38;5111175;28;20168;-59
2023/10/18 07:59:45;;;;;;;16.55;12.27;;;;;;;12.99;100.00;98510.50;5112587;28;20187;-59
2023/10/18 08:02:23;;;;;;;17.70;13.50;;;;;;;12.74;100.00;98500.31;5112583;28;20200;-59
2023/10/18 08:04:48;;;;;;;18.98;13.30;;;;;;;13.08;100.00;98538.38;5112521;28;20269;-59
2023/10/18 08:07:22;;;;;;;20.20;12.80;;;;;;;13.04;100.00;98536.94;5112147;28;20252;-59
2023/10/18 08:09:48;;;;;;;18.58;13.30;;;;;;;13.15;100.00;98545.59;5112566;28;20176;-58
2023/10/18 08:12:20;;;;;;;21.45;13.55;;;;;;;12.99;100.00;98528.69;5112378;28;20186;-59
2023/10/18 08:14:48;;;;;;;22.20;14.95;;;;;;;12.89;100.00;98522.53;5112321;28;20215;-59
2023/10/18 08:17:33;;;;;;;21.50;13.75;;;;;;;12.90;100.00;98514.59;5068917;28;20724;-58
2023/10/18 08:22:47;;;;;;;23.90;15.75;;;;;;;13.19;100.00;98535.78;5069143;28;20678;-59
2023/10/18 08:25:24;;;;;;;21.30;15.48;;;;;;;12.88;100.00;98494.88;5069021;28;20185;-59
2023/10/18 08:27:50;;;;;;;22.38;15.43;;;;;;;12.94;100.00;98536.81;5068990;28;20192;-59
2023/10/18 08:30:38;;;;;;;25.05;15.38;;;;;;;12.80;100.00;98518.00;5068889;28;20364;-58
2023/10/18 08:33:05;;;;;;;20.60;15.13;;;;;;;13.11;100.00;98543.31;5068568;28;20311;-58
2023/10/18 08:35:31;;;;;;;26.35;15.93;;;;;;;13.08;100.00;98528.00;5068814;28;20179;-59
2023/10/18 08:38:01;;;;;;;22.17;16.58;;;;;;;12.91;100.00;98526.66;5068713;28;20189;-59
2023/10/18 08:40:27;;;;;;;21.50;16.60;;;;;;;12.72;100.00;98499.59;5068732;28;20231;-59
2023/10/18 08:43:05;;;;;;;23.95;17.17;;;;;;;12.96;100.00;98539.31;5068512;28;20204;-59
2023/10/18 08:45:36;;;;;;;24.20;17.73;;;;;;;12.71;100.00;98516.94;5068732;28;20686;-60
2023/10/18 08:48:11;;;;;;;20.08;15.73;;;;;;;12.93;100.00;98540.34;5068636;28;20189;-60
2023/10/18 08:50:40;;;;;;;23.90;16.73;;;;;;;12.60;100.00;98500.53;5068752;28;20268;-60
2023/10/18 08:53:07;;;;;;;23.30;17.20;;;;;;;12.66;100.00;98521.63;5068463;28;20694;-60
2023/10/18 08:55:45;;;;;;;23.13;17.88;;;;;;;13.04;100.00;98542.16;5068778;28;20184;-59
2023/10/18 08:58:22;;;;;;;22.30;16.20;;;;;;;12.97;100.00;98531.41;5068610;28;20272;-60
2023/10/18 09:03:23;;;;;;;19.23;14.98;;;;;;;13.00;100.00;98507.00;5068568;28;20193;-60
2023/10/18 09:05:52;;;;;;;20.65;15.45;;;;;;;13.17;100.00;98532.47;5068215;28;20189;-60
2023/10/18 09:08:23;;;;;;;24.27;16.92;;;;;;;13.37;100.00;98549.97;5068291;28;20192;-59
2023/10/18 09:10:55;;;;;;;24.92;16.33;;;;;;;13.39;100.00;98543.69;5068451;28;20177;-60
2023/10/18 09:16:01;;;;;;;22.92;16.67;;;;;;;13.54;100.00;98552.06;5111375;28;20607;-59
2023/10/18 09:18:30;;;;;;;19.52;14.63;;;;;;;13.56;100.00;98545.81;5111147;28;20590;-59
2023/10/18 09:21:02;;;;;;;22.15;14.85;;;;;;;13.45;100.00;98524.19;5109807;28;20630;-59
2023/10/18 09:23:31;;;;;;;20.08;15.65;;;;;;;13.68;100.00;98554.41;5110301;28;20672;-59
2023/10/18 09:26:18;;;;;;;19.10;14.80;;;;;;;13.47;100.00;98514.53;5111325;28;20320;-59
2023/10/18 09:28:44;;;;;;;22.10;14.88;;;;;;;13.65;100.00;98533.88;5111387;28;20184;-59
2023/10/18 09:31:21;;;;;;;23.20;16.38;;;;;;;13.73;100.00;98541.88;5109917;28;20183;-60
2023/10/18 09:33:56;;;;;;;20.23;15.43;;;;;;;13.64;100.00;98512.22;5110894;28;20218;-59
2023/10/18 09:36:25;;;;;;;26.05;14.57;;;;;;;13.75;100.00;98535.59;5111042;28;20279;-59
2023/10/18 09:38:53;;;;;;;24.45;14.45;;;;;;;13.66;100.00;98525.13;5111004;28;20172;-59
2023/10/18 09:41:19;;;;;;;19.13;14.90;;;;;;;13.77;100.00;98532.91;5110585;28;20186;-59
2023/10/18 09:43:47;;;;;;;26.98;16.20;;;;;;;13.80;100.00;98530.88;5111078;28;20176;-59
2023/10/18 09:46:13;;;;;;;21.50;15.38;;;;;;;13.87;100.00;98528.59;5110969;28;20175;-59
2023/10/18 09:48:44;;;;;;;18.45;13.38;;;;;;;14.14;100.00;98542.84;5111089;28;20552;-59
2023/10/18 09:51:11;;;;;;;22.58;14.95;;;;;;;14.11;100.00;98522.25;5110984;28;20176;-59
2023/10/18 09:53:42;;;;;;;20.13;14.40;;;;;;;14.28;100.00;98544.38;5110893;28;20700;-60
2023/10/18 09:56:12;;;;;;;20.67;15.45;;;;;;;14.32;100.00;98536.16;5087969;28;20188;-59
2023/10/18 09:58:42;;;;;;;20.42;14.88;;;;;;;14.37;100.00;98514.97;5088119;28;20663;-59
2023/10/18 10:01:17;;;;;;;21.15;15.15;;;;;;;14.21;100.00;98491.97;5088122;28;20231;-59
2023/10/18 10:03:52;;;;;;;18.88;13.85;;;;;;;14.27;100.00;98499.28;5088100;28;20685;-59
2023/10/18 10:06:23;;;;;;;23.63;15.57;;;;;;;14.50;100.00;98533.81;5088159;28;20715;-59
2023/10/18 10:08:55;;;;;;;20.52;15.85;;;;;;;14.62;100.00;98533.66;5088015;28;20243;-60
2023/10/18 10:11:22;;;;;;;19.48;15.40;;;;;;;14.70;100.00;98533.03;5087872;28;20193;-59
2023/10/18 10:13:51;;;;;;;21.25;15.75;;;;;;;14.38;100.00;98493.19;5088001;28;20216;-60
2023/10/18 10:16:24;;;;;;;20.73;14.75;;;;;;;14.68;100.00;98533.13;5087875;28;20735;-60
2023/10/18 10:18:52;;;;;;;23.02;14.73;;;;;;;14.74;100.00;98513.56;5089224;28;20172;-60
2023/10/18 10:21:21;;;;;;;19.98;14.75;;;;;;;14.72;100.00;98498.06;5091572;28;20697;-59
2023/10/18 10:23:55;;;;;;;21.77;13.90;;;;;;;14.92;100.00;98504.22;5091593;28;20180;-59
2023/10/18 10:26:27;;;;;;;18.80;14.23;;;;;;;15.07;100.00;98529.81;5091722;28;20237;-59
2023/10/18 10:31:54;;;;;;;16.30;14.02;;;;;;;15.21;100.00;98526.84;5094002;28;20172;-60
2023/10/18 10:34:32;;;;;;;17.67;13.43;;;;;;;15.08;100.00;98488.91;5093765;28;20235;-59
2023/10/18 10:37:05;;;;;;;18.20;13.25;;;;;;;15.32;100.00;98523.31;5093735;28;20191;-60
2023/10/18 10:39:32;;;;;;;16.13;13.48;;;;;;;15.13;100.00;98497.16;5093882;28;20283;-59
2023/10/18 10:42:08;;;;;;;17.35;14.05;;;;;;;15.29;100.00;98507.94;5070844;28;20247;-59
2023/10/18 10:44:57;;;;;;;18.35;13.65;;;;;;;15.39;100.00;98524.47;5070846;28;20651;-59
2023/10/18 10:47:29;;;;;;;18.20;13.15;;;;;;;15.38;100.00;98505.41;5071121;28;20267;-59
2023/10/18 10:49:59;;;;;;;15.13;12.93;;;;;;;15.45;100.00;98501.28;5070998;28;20189;-59
2023/10/18 10:52:29;;;;;;;18.85;12.38;;;;;;;15.72;100.00;98513.72;5070943;28;20184;-59
2023/10/18 10:55:21;;;;;;;15.45;11.75;;;;;;;15.64;100.00;98484.88;5070874;28;20201;-59
2023/10/18 10:57:48;;;;;;;14.50;12.32;;;;;;;15.66;100.00;98496.00;5070639;28;20636;-59
2023/10/18 11:03:06;;;;;;;12.90;10.63;;;;;;;15.49;100.00;98509.66;5071036;28;20247;-59
2023/10/18 11:05:39;;;;;;;10.70;9.30;;;;;;;15.63;100.00;98506.72;5070768;28;20192;-59
2023/10/18 11:08:05;;;;;;;12.18;9.98;;;;;;;15.59;100.00;98506.16;5070666;28;20202;-59
2023/10/18 11:10:39;;;;;;;12.15;10.85;;;;;;;15.41;100.00;98465.19;5070557;28;20181;-59
2023/10/18 11:13:07;;;;;;;15.45;11.23;;;;;;;15.59;100.00;98485.28;5052144;28;20721;-59
2023/10/18 11:15:36;;;;;;;15.00;11.38;;;;;;;15.71;100.00;98491.19;5070707;28;20284;-60
2023/10/18 11:18:20;;;;;;;17.80;12.35;;;;;;;15.75;100.00;98487.38;5070468;28;20192;-58
2023/10/18 11:21:18;;;;;;;16.88;12.48;;;;;;;15.85;100.00;98488.22;5070820;28;20177;-59
2023/10/18 11:23:46;;;;;;;16.05;11.07;;;;;;;16.07;100.00;98485.31;5070416;28;20192;-59
2023/10/18 11:26:19;;;;;;;12.35;11.05;;;;;;;16.12;100.00;98472.69;5070048;28;20181;-59
2023/10/18 11:28:48;;;;;;;13.38;9.70;;;;;;;16.13;100.00;98469.94;5070391;28;20296;-60
2023/10/18 11:31:14;;;;;;;14.77;10.93;;;;;;;16.26;100.00;98474.91;5069973;28;20200;-60
2023/10/18 11:33:57;;;;;;;14.65;9.80;;;;;;;16.29;100.00;98479.81;5070136;28;20277;-59
2023/10/18 11:36:27;;;;;;;12.60;8.95;;;;;;;16.35;100.00;98479.28;5070101;28;20176;-59
2023/10/18 11:41:37;;;;;;;13.80;9.25;;;;;;;16.22;100.00;98457.84;5070433;28;20249;-59
2023/10/18 11:44:07;;;;;;;13.70;9.82;;;;;;;16.01;100.00;98447.56;5081416;28;20188;-59
2023/10/18 11:47:00;;;;;;;14.98;9.48;;;;;;;16.03;100.00;98437.00;5092365;28;20168;-60
2023/10/18 11:49:42;;;;;;;11.10;9.00;;;;;;;16.32;100.00;98475.16;5091691;28;20221;-60
2023/10/18 11:52:21;;;;;;;12.20;9.32;;;;;;;16.31;100.00;98451.78;5089884;28;20199;-59
2023/10/18 11:54:51;;;;;;;12.30;9.48;;;;;;;16.25;100.00;98436.66;5089848;28;20210;-59
2023/10/18 11:57:31;;;;;;;10.93;9.65;;;;;;;16.06;100.00;98445.38;5089476;28;20184;-60
2023/10/18 12:02:43;;;;;;;17.52;9.63;;;;;;;15.69;100.00;98418.28;5090205;28;20199;-59
2023/10/18 12:05:10;;;;;;;9.48;8.48;;;;;;;15.83;100.00;98430.09;5089804;28;20758;-59
2023/10/18 12:07:44;;;;;;;10.52;8.60;;;;;;;16.19;100.00;98442.44;5089809;28;20184;-59
2023/10/18 12:10:34;;;;;;;12.40;9.18;;;;;;;15.98;100.00;98429.53;5089833;28;20188;-59
2023/10/18 12:13:05;;;;;;;11.05;8.57;;;;;;;16.05;100.00;98430.66;5089403;28;20184;-59
2023/10/18 12:15:31;;;;;;;13.52;11.00;;;;;;;16.11;100.00;98434.50;5089627;28;20267;-59
2023/10/18 12:17:56;;;;;;;11.68;9.88;;;;;;;15.84;100.00;98418.69;5089502;28;20222;-60